Time;durP1;ratioP1;P1;durP2;ratioP2;P2;SDS_P1;SDS_P2;PMS_P1;PMS_P2;Temp;Humidity;BMP_temperature;BMP_pressure;BME280_temperature;BME280_humidity;BME280_pressure;Samples;Min_cycle;Max_cycle;Signal;HPM_P1;HPM_P2
2023/03/19 00:00:40;;;;;;;5.18;3.47;;;;;;;-1.26;56.60;98396.78;6319820;28;20631;-66
2023/03/19 00:03:45;;;;;;;6.68;2.65;;;;;;;-1.34;56.12;98404.47;6318963;28;20044;-66
2023/03/19 00:06:49;;;;;;;6.68;2.80;;;;;;;-1.39;55.85;98404.47;6319715;28;20044;-67
2023/03/19 00:09:50;;;;;;;10.05;4.90;;;;;;;-1.44;56.42;98413.03;6318881;28;20067;-66
2023/03/19 00:12:56;;;;;;;12.43;6.38;;;;;;;-1.47;55.84;98413.88;6319323;28;20039;-67
2023/03/19 00:15:57;;;;;;;10.60;6.97;;;;;;;-1.45;55.82;98416.44;6317660;28;20056;-66
2023/03/19 00:19:00;;;;;;;13.05;8.35;;;;;;;-1.44;55.71;98431.97;6318825;28;20470;-66
2023/03/19 00:22:03;;;;;;;10.52;7.90;;;;;;;-1.48;55.27;98437.94;6319161;28;20048;-67
2023/03/19 00:25:07;;;;;;;11.88;9.15;;;;;;;-1.53;55.68;98434.44;6319243;28;20043;-66
2023/03/19 00:28:08;;;;;;;13.63;7.23;;;;;;;-1.54;55.15;98443.06;6319131;28;20131;-66
2023/03/19 00:31:14;;;;;;;12.00;6.22;;;;;;;-1.57;55.50;98443.03;6323316;28;20051;-66
2023/03/19 00:34:18;;;;;;;6.15;4.50;;;;;;;-1.60;54.94;98453.34;6322537;28;20147;-66
2023/03/19 00:37:19;;;;;;;7.10;4.30;;;;;;;-1.64;54.07;98456.75;6324076;28;20055;-66
2023/03/19 00:40:21;;;;;;;4.88;3.90;;;;;;;-1.70;54.04;98451.50;6324040;28;20036;-67
2023/03/19 00:43:24;;;;;;;5.95;4.35;;;;;;;-1.81;53.79;98470.38;6324102;28;20036;-66
2023/03/19 00:46:26;;;;;;;5.78;4.25;;;;;;;-1.91;53.60;98458.22;6323317;28;20048;-67
2023/03/19 00:49:27;;;;;;;8.70;4.30;;;;;;;-1.88;54.12;98484.03;6323728;28;20056;-66
2023/03/19 00:52:31;;;;;;;13.13;5.07;;;;;;;-1.93;54.15;98480.53;6323798;28;20039;-67
2023/03/19 00:55:33;;;;;;;11.88;5.10;;;;;;;-1.94;53.63;98494.28;6323474;28;20048;-67
2023/03/19 00:58:37;;;;;;;9.93;6.13;;;;;;;-1.98;53.80;98492.53;6323919;28;20047;-65
2023/03/19 01:01:38;;;;;;;9.70;5.10;;;;;;;-1.94;53.35;98499.44;6323242;28;20131;-67
2023/03/19 01:04:42;;;;;;;7.68;6.22;;;;;;;-2.03;52.80;98499.38;6323856;28;20048;-66
2023/03/19 01:07:44;;;;;;;7.80;5.60;;;;;;;-2.13;53.68;98500.09;6322991;28;20044;-67
2023/03/19 01:10:51;;;;;;;8.57;5.53;;;;;;;-2.17;53.65;98516.41;6322913;28;20531;-67
2023/03/19 01:13:54;;;;;;;5.63;3.20;;;;;;;-2.14;53.62;98511.28;6322184;28;20048;-67
2023/03/19 01:16:56;;;;;;;5.43;4.60;;;;;;;-2.19;53.56;98515.50;6322768;28;20040;-67
2023/03/19 01:19:57;;;;;;;9.05;3.80;;;;;;;-2.24;53.78;98522.31;6322738;28;20418;-66
2023/03/19 01:23:01;;;;;;;9.57;5.03;;;;;;;-2.29;53.49;98523.13;6322704;28;20055;-65
2023/03/19 01:26:02;;;;;;;8.82;5.93;;;;;;;-2.28;54.06;98540.31;6322240;28;20044;-65
2023/03/19 01:29:06;;;;;;;8.98;5.28;;;;;;;-2.27;53.91;98531.72;6323085;28;20417;-66
2023/03/19 01:32:08;;;;;;;9.95;5.18;;;;;;;-2.32;53.94;98543.72;6322413;28;20056;-66
2023/03/19 01:35:18;;;;;;;5.80;4.80;;;;;;;-2.29;53.54;98537.75;6322779;28;20043;-66
2023/03/19 01:38:22;;;;;;;5.30;4.03;;;;;;;-2.28;53.57;98550.63;6322811;28;20288;-66
2023/03/19 01:41:28;;;;;;;8.35;4.85;;;;;;;-2.39;53.55;98548.75;6321014;28;20044;-67
2023/03/19 01:44:32;;;;;;;8.20;4.38;;;;;;;-2.39;52.80;98553.91;6322518;28;20122;-66
2023/03/19 01:47:40;;;;;;;4.97;4.13;;;;;;;-2.45;52.49;98562.44;6322596;28;20047;-66
2023/03/19 01:50:44;;;;;;;7.25;3.67;;;;;;;-2.44;52.00;98563.31;6322416;28;20524;-67
2023/03/19 01:53:52;;;;;;;5.70;4.20;;;;;;;-2.60;52.11;98572.53;6321898;28;20505;-67
2023/03/19 01:57:08;;;;;;;6.63;4.22;;;;;;;-2.65;52.17;98569.03;6272056;28;20045;-67
2023/03/19 02:00:11;;;;;;;5.97;4.60;;;;;;;-2.67;52.02;98575.84;6272064;28;20545;-66
2023/03/19 02:03:13;;;;;;;9.95;5.70;;;;;;;-2.64;52.31;98581.91;6271427;28;20072;-66
2023/03/19 02:06:20;;;;;;;6.97;5.40;;;;;;;-2.64;52.13;98578.47;6272020;28;20033;-66
2023/03/19 02:09:26;;;;;;;8.88;5.60;;;;;;;-2.58;51.36;98583.72;6272135;28;20045;-66
2023/03/19 02:12:31;;;;;;;9.48;5.47;;;;;;;-2.62;51.83;98585.38;6271893;28;20049;-66
2023/03/19 02:15:34;;;;;;;9.98;5.28;;;;;;;-2.68;52.00;98594.75;6271888;28;20044;-67
2023/03/19 02:18:39;;;;;;;10.10;5.55;;;;;;;-2.67;51.71;98596.47;6271736;28;20045;-67
2023/03/19 02:21:40;;;;;;;9.05;5.20;;;;;;;-2.65;51.54;98594.78;6270077;28;20076;-67
2023/03/19 02:25:01;;;;;;;10.65;6.25;;;;;;;-2.59;51.36;98605.19;6271709;28;20044;-66
2023/03/19 02:28:05;;;;;;;9.02;5.85;;;;;;;-2.58;51.38;98606.91;6271713;28;20048;-67
2023/03/19 02:31:07;;;;;;;10.50;5.20;;;;;;;-2.53;50.92;98605.28;6271826;28;20049;-67
2023/03/19 02:34:22;;;;;;;8.82;5.65;;;;;;;-2.57;50.82;98619.84;6271183;28;20442;-67
2023/03/19 02:37:26;;;;;;;13.75;7.10;;;;;;;-2.57;50.89;98624.13;6271620;28;20048;-66
2023/03/19 02:40:37;;;;;;;10.18;5.82;;;;;;;-2.59;50.66;98625.81;6271348;28;20392;-66
2023/03/19 02:43:42;;;;;;;5.68;4.13;;;;;;;-2.60;50.63;98627.53;6271166;28;20045;-66
2023/03/19 02:46:43;;;;;;;7.53;5.03;;;;;;;-2.54;50.77;98634.47;6271276;28;20090;-66
2023/03/19 02:49:49;;;;;;;7.75;4.47;;;;;;;-2.53;50.59;98637.06;6271088;28;20052;-67
2023/03/19 02:52:51;;;;;;;6.50;4.13;;;;;;;-2.50;50.27;98637.09;6270199;28;20048;-67
2023/03/19 02:55:54;;;;;;;7.53;3.40;;;;;;;-2.39;50.09;98644.16;6306002;28;20052;-66
2023/03/19 02:58:56;;;;;;;5.20;3.70;;;;;;;-2.38;50.27;98636.41;6320659;28;20401;-67
2023/03/19 03:01:57;;;;;;;2.85;2.53;;;;;;;-2.36;49.27;98651.94;6320231;28;20414;-67
2023/03/19 03:05:01;;;;;;;8.98;3.22;;;;;;;-2.31;49.35;98648.56;6321002;28;20044;-66
2023/03/19 03:08:08;;;;;;;5.90;4.47;;;;;;;-2.22;48.84;98659.88;6320710;28;20048;-66
2023/03/19 03:11:11;;;;;;;6.05;4.15;;;;;;;-2.14;48.32;98655.69;6320069;28;20136;-67
2023/03/19 03:14:16;;;;;;;5.53;3.22;;;;;;;-2.10;47.71;98663.47;6320026;28;20044;-67
2023/03/19 03:17:18;;;;;;;5.78;3.67;;;;;;;-2.05;47.94;98666.13;6318140;28;20047;-68
2023/03/19 03:20:19;;;;;;;9.32;3.85;;;;;;;-1.94;47.35;98654.25;6319851;28;20124;-67
2023/03/19 03:23:20;;;;;;;8.88;3.72;;;;;;;-1.79;46.23;98660.44;6318603;28;20048;-66
2023/03/19 03:26:24;;;;;;;4.63;2.75;;;;;;;-1.71;45.90;98662.28;6319372;28;20417;-66
2023/03/19 03:29:28;;;;;;;6.63;3.50;;;;;;;-1.60;44.60;98665.84;6319695;28;20043;-66
2023/03/19 03:32:32;;;;;;;6.88;3.65;;;;;;;-1.54;44.09;98671.94;6319491;28;20060;-68
2023/03/19 03:35:38;;;;;;;10.63;5.78;;;;;;;-1.42;44.15;98665.19;6320103;28;20040;-66
2023/03/19 03:38:43;;;;;;;9.52;4.88;;;;;;;-1.24;43.99;98679.19;6319671;28;20100;-67
2023/03/19 03:41:44;;;;;;;8.30;2.90;;;;;;;-1.10;43.09;98672.44;6319376;28;20055;-66
2023/03/19 03:44:46;;;;;;;6.25;3.67;;;;;;;-1.09;42.68;98681.06;6319859;28;20086;-67
2023/03/19 03:47:55;;;;;;;7.65;3.33;;;;;;;-0.95;43.15;98687.25;6319805;28;20036;-67
2023/03/19 03:51:03;;;;;;;3.97;2.33;;;;;;;-0.74;42.58;98686.56;6319628;28;20040;-66
2023/03/19 03:54:09;;;;;;;5.57;3.05;;;;;;;-0.52;42.41;98706.59;6318944;28;20074;-66
2023/03/19 03:57:11;;;;;;;4.50;3.08;;;;;;;-0.26;43.00;98695.56;6319226;28;20059;-67
2023/03/19 04:00:17;;;;;;;5.72;3.65;;;;;;;-0.13;42.03;98706.91;6319315;28;20044;-67
2023/03/19 04:03:21;;;;;;;9.52;4.43;;;;;;;-0.14;42.90;98713.81;6318969;28;20498;-67
2023/03/19 04:06:28;;;;;;;7.15;3.95;;;;;;;-0.24;42.94;98715.44;6319201;28;20131;-67
2023/03/19 04:09:32;;;;;;;6.45;3.90;;;;;;;-0.49;43.22;98714.38;6319234;28;20036;-67
2023/03/19 04:12:34;;;;;;;7.00;3.40;;;;;;;-0.78;43.85;98715.84;6319205;28;20043;-67
2023/03/19 04:15:43;;;;;;;4.38;2.67;;;;;;;-1.03;43.50;98725.03;6319479;28;20419;-67
2023/03/19 04:19:03;;;;;;;5.72;2.85;;;;;;;-1.22;44.81;98729.13;6319202;28;20054;-67
2023/03/19 04:22:07;;;;;;;8.45;4.00;;;;;;;-1.45;44.44;98721.09;6318940;28;20044;-66
2023/03/19 04:25:09;;;;;;;8.93;2.95;;;;;;;-1.68;44.71;98729.41;6318616;28;20059;-68
2023/03/19 04:28:14;;;;;;;5.57;3.58;;;;;;;-1.83;45.04;98732.66;6319035;28;20491;-67
2023/03/19 04:31:17;;;;;;;8.57;4.38;;;;;;;-2.00;45.16;98731.56;6318055;28;20181;-67
2023/03/19 04:34:19;;;;;;;7.18;3.60;;;;;;;-2.06;44.90;98731.47;6318595;28;20055;-67
2023/03/19 04:37:22;;;;;;;4.75;3.15;;;;;;;-2.18;45.24;98731.25;6318673;28;20070;-66
2023/03/19 04:40:26;;;;;;;6.72;2.30;;;;;;;-2.24;44.82;98736.31;6319196;28;20036;-66
2023/03/19 04:43:28;;;;;;;3.95;1.73;;;;;;;-2.32;44.79;98737.09;6318576;28;20059;-67
2023/03/19 04:46:31;;;;;;;1.77;1.42;;;;;;;-2.35;44.33;98739.63;6319008;28;20044;-67
2023/03/19 04:49:35;;;;;;;3.88;1.60;;;;;;;-2.42;44.00;98740.34;6318328;28;20061;-67
2023/03/19 04:52:39;;;;;;;8.93;3.80;;;;;;;-2.47;43.83;98739.41;6318558;28;20044;-67
2023/03/19 04:55:43;;;;;;;2.83;1.20;;;;;;;-2.43;44.02;98746.34;6317382;28;20429;-68
2023/03/19 04:58:44;;;;;;;2.63;1.40;;;;;;;-2.46;43.41;98750.56;6317977;28;20509;-67
2023/03/19 05:01:46;;;;;;;1.92;1.13;;;;;;;-2.48;43.20;98750.56;6318395;28;20037;-68
2023/03/19 05:04:50;;;;;;;1.13;1.00;;;;;;;-2.44;43.36;98749.75;6318396;28;20036;-69
2023/03/19 05:07:56;;;;;;;1.33;1.00;;;;;;;-2.38;43.16;98755.00;6318507;28;20497;-66
2023/03/19 05:10:57;;;;;;;3.05;1.55;;;;;;;-2.40;43.11;98751.56;6318321;28;20047;-67
2023/03/19 05:14:04;;;;;;;1.83;1.30;;;;;;;-2.37;42.91;98756.75;6318633;28;20498;-67
2023/03/19 05:17:06;;;;;;;1.63;1.30;;;;;;;-2.34;42.42;98751.66;6322092;28;20040;-67
2023/03/19 05:20:11;;;;;;;;;;;;;;;-2.30;42.63;98758.59;6323651;28;20040;-68
2023/03/19 05:23:13;;;;;;;1.25;0.85;;;;;;;-2.30;42.33;98761.16;6322996;28;19920;-68
2023/03/19 05:26:17;;;;;;;1.40;0.80;;;;;;;-2.22;41.81;98761.28;6321989;28;20046;-68
2023/03/19 05:29:20;;;;;;;2.70;1.17;;;;;;;-2.16;41.67;98756.22;6323015;28;20042;-68
2023/03/19 05:32:22;;;;;;;;;;;;;;;-2.05;42.21;98761.56;6323019;28;20549;-67
2023/03/19 05:35:24;;;;;;;1.40;0.95;;;;;;;-2.00;41.16;98762.50;6322256;28;20382;-68
2023/03/19 05:38:30;;;;;;;2.65;1.13;;;;;;;-1.92;40.72;98750.59;6323074;28;20109;-67
2023/03/19 05:41:31;;;;;;;2.35;1.15;;;;;;;-1.79;40.54;98761.09;6322783;28;20539;-67
2023/03/19 05:44:38;;;;;;;4.18;1.13;;;;;;;-1.66;40.37;98763.00;6322879;28;20036;-67
2023/03/19 05:47:48;;;;;;;1.40;1.00;;;;;;;-0.53;39.45;98756.56;6322638;28;20044;-66
2023/03/19 05:50:51;;;;;;;1.13;0.95;;;;;;;5.76;32.38;98759.09;6322694;28;20047;-67
2023/03/19 05:53:52;;;;;;;1.17;0.80;;;;;;;11.61;26.78;98766.13;6321649;28;20082;-68
2023/03/19 05:56:58;;;;;;;1.30;1.20;;;;;;;15.87;22.80;98770.78;6321733;28;20055;-66
2023/03/19 06:00:05;;;;;;;5.20;1.20;;;;;;;18.80;19.98;98772.16;6322445;28;20051;-67
2023/03/19 06:03:07;;;;;;;0.50;0.50;;;;;;;21.06;18.51;98775.34;6322068;28;20413;-68
2023/03/19 06:06:11;;;;;;;0.73;0.50;;;;;;;22.79;16.69;98768.50;6322126;28;20040;-67
2023/03/19 06:09:14;;;;;;;1.10;0.57;;;;;;;23.58;15.52;98765.28;6322153;28;20048;-69
2023/03/19 06:12:19;;;;;;;1.40;0.60;;;;;;;25.40;14.77;98780.03;6321516;28;20056;-67
2023/03/19 06:15:20;;;;;;;2.00;0.40;;;;;;;27.37;12.91;98769.41;6320175;28;20434;-67
2023/03/19 06:18:24;;;;;;;2.90;0.47;;;;;;;27.99;11.50;98778.16;6321743;28;20185;-68
2023/03/19 06:21:30;;;;;;;1.42;0.50;;;;;;;28.10;11.02;98779.72;6321812;28;20044;-67
2023/03/19 06:24:34;;;;;;;1.60;0.65;;;;;;;28.26;10.36;98778.94;6321141;28;20056;-67
2023/03/19 06:27:38;;;;;;;0.63;0.40;;;;;;;28.96;10.40;98789.38;6320198;28;20043;-67
2023/03/19 06:30:40;;;;;;;1.75;0.40;;;;;;;29.79;9.46;98782.81;6321881;28;20084;-67
2023/03/19 06:33:41;;;;;;;0.80;0.40;;;;;;;30.49;9.32;98791.97;6321447;28;20571;-67
2023/03/19 06:36:46;;;;;;;1.48;0.40;;;;;;;30.71;9.13;98780.25;6321197;28;20061;-68
2023/03/19 06:39:54;;;;;;;1.17;0.50;;;;;;;31.30;7.95;98780.44;6321378;28;20048;-68
2023/03/19 06:42:55;;;;;;;0.98;0.50;;;;;;;30.92;8.31;98776.06;6321208;28;20101;-67
2023/03/19 06:46:00;;;;;;;0.80;0.30;;;;;;;30.92;7.93;98770.63;6319341;28;20093;-67
2023/03/19 06:49:05;;;;;;;1.20;0.50;;;;;;;32.27;7.62;98776.75;6321094;28;20529;-68
2023/03/19 06:52:07;;;;;;;1.27;0.68;;;;;;;33.03;6.89;98776.31;6320739;28;20039;-68
2023/03/19 06:55:13;;;;;;;4.43;0.90;;;;;;;33.60;6.67;98793.53;6320720;28;20545;-67
2023/03/19 06:58:20;;;;;;;2.22;1.00;;;;;;;34.16;6.33;98788.81;6321001;28;20139;-68
2023/03/19 07:01:25;;;;;;;0.93;0.60;;;;;;;34.76;6.15;98794.47;6320425;28;20035;-68
2023/03/19 07:04:31;;;;;;;1.75;0.80;;;;;;;34.86;6.03;98789.44;6320860;28;20313;-70
2023/03/19 07:07:37;;;;;;;1.80;0.85;;;;;;;34.61;5.54;98788.34;6320471;28;20040;-69
2023/03/19 07:10:39;;;;;;;1.85;1.10;;;;;;;34.67;5.71;98784.78;6319958;28;20488;-68
2023/03/19 07:13:45;;;;;;;3.58;1.08;;;;;;;34.77;5.44;98782.50;6320470;28;20040;-68
2023/03/19 07:16:49;;;;;;;1.20;0.70;;;;;;;35.20;5.44;98781.25;6320869;28;20051;-68
2023/03/19 07:19:52;;;;;;;2.25;0.85;;;;;;;34.84;5.12;98791.53;6320407;28;20044;-68
2023/03/19 07:23:00;;;;;;;2.75;1.00;;;;;;;34.73;5.43;98792.16;6320047;28;20048;-68
2023/03/19 07:26:03;;;;;;;1.35;0.95;;;;;;;34.46;5.33;98795.88;6319012;28;20059;-68
2023/03/19 07:29:05;;;;;;;2.05;1.30;;;;;;;34.52;5.05;98775.91;6319586;28;20040;-68
2023/03/19 07:32:08;;;;;;;1.10;1.00;;;;;;;34.71;5.12;98793.41;6319566;28;20452;-68
2023/03/19 07:35:13;;;;;;;1.15;0.80;;;;;;;35.16;4.81;98793.66;6319660;28;20048;-68
2023/03/19 07:38:19;;;;;;;2.85;0.80;;;;;;;35.59;4.75;98796.81;6319748;28;20052;-67
2023/03/19 07:41:22;;;;;;;3.42;2.75;;;;;;;35.44;4.93;98801.66;6320286;28;20060;-67
2023/03/19 07:44:24;;;;;;;2.17;1.48;;;;;;;35.23;4.77;98795.38;6319594;28;20040;-67
2023/03/19 07:47:28;;;;;;;2.47;1.00;;;;;;;35.04;4.78;98786.06;6319596;28;20050;-67
2023/03/19 07:50:30;;;;;;;1.98;1.15;;;;;;;35.64;4.49;98780.59;6319445;28;20035;-68
2023/03/19 07:53:32;;;;;;;2.15;0.90;;;;;;;35.71;4.17;98775.94;6319172;28;20048;-68
2023/03/19 07:56:35;;;;;;;1.65;1.25;;;;;;;35.42;4.31;98782.72;6318073;28;20517;-68
2023/03/19 07:59:36;;;;;;;1.73;1.00;;;;;;;35.04;4.52;98783.31;6318934;28;20135;-68
2023/03/19 08:02:42;;;;;;;1.75;1.20;;;;;;;35.07;4.68;98784.84;6319085;28;20047;-68
2023/03/19 08:05:51;;;;;;;1.73;0.90;;;;;;;35.29;4.54;98780.81;6319101;28;20040;-69
2023/03/19 08:08:55;;;;;;;2.85;0.82;;;;;;;35.61;4.62;98769.22;6319245;28;20039;-67
2023/03/19 08:11:58;;;;;;;1.15;0.60;;;;;;;35.79;4.45;98782.25;6318978;28;20056;-68
2023/03/19 08:15:02;;;;;;;0.98;0.52;;;;;;;35.31;4.54;98780.63;6319099;28;20044;-68
2023/03/19 08:18:05;;;;;;;2.35;1.05;;;;;;;35.27;4.48;98776.63;6318709;28;20048;-68
2023/03/19 08:21:08;;;;;;;1.73;0.73;;;;;;;35.88;4.59;98778.22;6319117;28;20048;-68
2023/03/19 08:24:18;;;;;;;2.08;0.75;;;;;;;35.83;4.30;98778.00;6318827;28;20059;-68
2023/03/19 08:27:22;;;;;;;1.00;0.70;;;;;;;35.65;4.34;98771.31;6319176;28;20044;-67
2023/03/19 08:30:27;;;;;;;1.90;1.00;;;;;;;35.62;4.47;98771.75;6318404;28;20059;-68
2023/03/19 08:33:30;;;;;;;1.42;0.80;;;;;;;35.39;4.68;98765.88;6318943;28;20048;-68
2023/03/19 08:36:32;;;;;;;1.97;0.80;;;;;;;35.52;4.70;98760.38;6319070;28;20043;-69
2023/03/19 08:39:35;;;;;;;1.27;0.80;;;;;;;35.94;4.39;98756.25;6318652;28;20455;-68
2023/03/19 08:42:41;;;;;;;8.50;6.90;;;;;;;35.57;4.37;98757.88;6318945;28;20472;-69
2023/03/19 08:45:45;;;;;;;4.93;2.13;;;;;;;35.41;4.66;98750.06;6319071;28;20040;-68
2023/03/19 08:48:46;;;;;;;2.80;1.20;;;;;;;35.62;4.28;98760.81;6318500;28;20047;-69
2023/03/19 08:51:48;;;;;;;2.37;1.40;;;;;;;34.95;4.80;98743.56;6322338;28;20456;-69
2023/03/19 08:54:49;;;;;;;2.80;1.20;;;;;;;34.72;4.93;98749.44;6323663;28;20048;-68
2023/03/19 08:57:56;;;;;;;3.55;1.42;;;;;;;34.69;4.97;98749.88;6323882;28;20044;-68
2023/03/19 09:01:07;;;;;;;1.55;0.93;;;;;;;34.29;4.98;98744.31;6323687;28;20059;-68
2023/03/19 09:04:11;;;;;;;1.50;1.10;;;;;;;33.77;5.02;98745.75;6323301;28;20044;-68
2023/03/19 09:07:14;;;;;;;4.72;0.93;;;;;;;34.06;4.85;98749.28;6323431;28;20044;-69
2023/03/19 09:10:15;;;;;;;3.80;1.98;;;;;;;34.11;5.17;98746.75;6322470;28;20048;-70
2023/03/19 09:13:20;;;;;;;2.30;1.85;;;;;;;34.01;5.12;98751.75;6323201;28;20051;-68
2023/03/19 09:16:25;;;;;;;4.25;1.15;;;;;;;33.65;5.32;98748.22;6323316;28;20503;-69
2023/03/19 09:19:32;;;;;;;2.20;1.20;;;;;;;33.33;5.37;98744.25;6322617;28;20048;-69
2023/03/19 09:22:33;;;;;;;1.70;0.80;;;;;;;32.33;5.20;98739.72;6321152;28;20059;-68
2023/03/19 09:25:36;;;;;;;1.60;0.90;;;;;;;32.20;5.24;98737.72;6321700;28;20048;-69
2023/03/19 09:28:42;;;;;;;2.40;0.98;;;;;;;32.40;5.63;98748.84;6322849;28;20040;-68
2023/03/19 09:31:46;;;;;;;2.17;1.20;;;;;;;32.49;5.87;98738.69;6322919;28;20126;-67
2023/03/19 09:34:50;;;;;;;2.70;1.20;;;;;;;31.95;5.79;98740.78;6322349;28;20513;-68
2023/03/19 09:37:54;;;;;;;1.38;1.05;;;;;;;31.01;6.56;98731.47;6322265;28;20044;-68
2023/03/19 09:41:07;;;;;;;3.38;1.45;;;;;;;31.13;5.81;98731.84;6322325;28;20395;-69
2023/03/19 09:44:33;;;;;;;2.10;0.95;;;;;;;31.55;5.87;98728.53;6322146;28;20540;-69
2023/03/19 09:47:38;;;;;;;1.25;1.05;;;;;;;30.98;6.25;98731.84;6322360;28;20048;-68
2023/03/19 09:50:39;;;;;;;0.93;0.65;;;;;;;30.53;6.21;98718.09;6322420;28;20039;-69
2023/03/19 09:54:00;;;;;;;6.25;4.75;;;;;;;30.55;6.57;98726.06;6321949;28;20040;-69
2023/03/19 09:57:04;;;;;;;2.55;1.67;;;;;;;29.91;6.37;98721.69;6322277;28;20044;-68
2023/03/19 10:00:22;;;;;;;2.35;1.00;;;;;;;30.05;6.72;98716.53;6320387;28;20141;-68
2023/03/19 10:03:55;;;;;;;2.28;1.00;;;;;;;30.26;6.74;98719.47;6320878;28;20039;-68
2023/03/19 10:07:18;;;;;;;1.25;0.80;;;;;;;29.67;6.58;98716.41;6303844;28;20044;-68
2023/03/19 10:11:14;;;;;;;3.42;1.20;;;;;;;30.23;7.11;98710.84;6322042;28;20071;-68
2023/03/19 10:14:22;;;;;;;1.42;1.00;;;;;;;29.91;6.39;98713.53;6222263;28;20048;-69
2023/03/19 10:17:40;;;;;;;1.00;0.70;;;;;;;29.14;6.60;98715.19;6321574;28;20437;-70
2023/03/19 10:21:00;;;;;;;6.45;4.75;;;;;;;28.85;6.87;98713.84;6321923;28;20055;-67
2023/03/19 10:24:17;;;;;;;1.25;1.08;;;;;;;28.37;6.75;98712.81;6321371;28;20040;-68
2023/03/19 10:27:25;;;;;;;2.88;1.80;;;;;;;27.74;6.82;98706.91;6321579;28;20044;-68
2023/03/19 10:30:31;;;;;;;3.40;2.13;;;;;;;27.26;7.12;98708.38;6321770;28;20043;-68
2023/03/19 10:33:45;;;;;;;1.02;0.77;;;;;;;26.98;6.80;98698.72;6320272;28;20510;-68
2023/03/19 10:36:46;;;;;;;2.55;1.05;;;;;;;26.81;6.93;98703.16;6321028;28;20429;-68
2023/03/19 10:39:56;;;;;;;1.55;0.85;;;;;;;26.68;6.89;98708.97;6321070;28;20455;-68
2023/03/19 10:43:15;;;;;;;1.50;0.80;;;;;;;26.32;7.18;98700.88;6320967;28;20052;-68
2023/03/19 10:46:20;;;;;;;1.15;0.80;;;;;;;25.23;7.53;98700.81;6320407;28;20044;-68
2023/03/19 10:49:25;;;;;;;9.05;4.95;;;;;;;24.70;8.05;98695.13;6320807;28;20040;-69
2023/03/19 10:52:34;;;;;;;5.70;2.20;;;;;;;24.67;7.92;98698.09;6320393;28;20044;-68
2023/03/19 10:55:43;;;;;;;2.40;1.77;;;;;;;24.60;7.46;98687.91;6319914;28;20100;-68
2023/03/19 10:59:03;;;;;;;2.60;1.05;;;;;;;23.64;7.96;98691.34;6320156;28;20048;-68
2023/03/19 11:02:29;;;;;;;3.38;1.13;;;;;;;23.19;8.26;98689.91;6320766;28;20130;-68
2023/03/19 11:05:33;;;;;;;1.23;1.05;;;;;;;22.13;8.42;98684.63;6320623;28;20048;-69
2023/03/19 11:08:38;;;;;;;1.20;0.98;;;;;;;21.29;8.89;98678.97;6320382;28;20580;-67
2023/03/19 11:12:08;;;;;;;3.70;1.00;;;;;;;21.25;9.41;98674.81;6320268;28;20055;-68
2023/03/19 11:15:26;;;;;;;2.03;1.20;;;;;;;21.82;8.53;98671.09;6308986;28;20517;-68
2023/03/19 11:18:38;;;;;;;1.95;1.00;;;;;;;22.10;8.31;98674.16;6320414;28;20039;-69
2023/03/19 11:21:52;;;;;;;1.95;1.10;;;;;;;21.79;8.35;98671.34;6320423;28;20035;-68
2023/03/19 11:25:13;;;;;;;1.30;1.17;;;;;;;21.40;8.71;98675.44;6320372;28;20035;-68
2023/03/19 11:28:23;;;;;;;3.05;1.00;;;;;;;20.99;8.66;98660.84;6320191;28;20494;-68
2023/03/19 11:31:57;;;;;;;2.58;1.05;;;;;;;20.54;8.53;98656.28;6319676;28;20186;-68
2023/03/19 11:35:09;;;;;;;2.03;1.10;;;;;;;20.19;8.75;98657.13;6288012;28;20235;-69
2023/03/19 11:38:36;;;;;;;2.45;1.10;;;;;;;20.12;8.93;98649.69;6319912;28;20044;-69
2023/03/19 11:42:14;;;;;;;1.20;0.85;;;;;;;19.87;9.00;98661.38;6319738;28;20420;-68
2023/03/19 11:45:36;;;;;;;3.10;0.80;;;;;;;19.15;9.07;98659.44;6320035;28;20044;-67
2023/03/19 11:49:05;;;;;;;1.25;1.05;;;;;;;18.82;9.32;98658.22;6319271;28;20058;-68
2023/03/19 11:52:27;;;;;;;1.75;1.02;;;;;;;18.76;9.62;98652.44;6319859;28;20051;-69
2023/03/19 11:55:31;;;;;;;1.83;0.75;;;;;;;18.04;9.58;98644.03;6319500;28;20476;-68
2023/03/19 11:58:51;;;;;;;2.72;0.95;;;;;;;17.37;9.69;98646.63;6319540;28;20543;-69
2023/03/19 12:02:30;;;;;;;3.20;1.10;;;;;;;16.67;10.26;98659.84;6319813;28;20051;-69
2023/03/19 12:05:58;;;;;;;1.50;1.00;;;;;;;15.84;10.35;98655.00;6319281;28;20051;-69
2023/03/19 12:09:23;;;;;;;1.85;1.30;;;;;;;15.25;10.90;98657.41;6317604;28;20052;-68
2023/03/19 12:12:41;;;;;;;3.13;1.88;;;;;;;14.87;11.07;98645.41;6319271;28;20440;-69
2023/03/19 12:15:48;;;;;;;4.20;1.63;;;;;;;14.06;11.69;98653.13;6319278;28;20039;-68
2023/03/19 12:19:27;;;;;;;1.83;1.45;;;;;;;13.76;12.12;98643.16;6318597;28;20054;-68
2023/03/19 12:22:31;;;;;;;2.25;1.50;;;;;;;13.67;12.05;98643.56;6216599;28;20046;-68
2023/03/19 12:25:58;;;;;;;2.25;1.58;;;;;;;13.51;12.51;98640.84;6215908;28;20065;-69
2023/03/19 12:29:27;;;;;;;3.92;1.70;;;;;;;13.29;12.74;98629.59;6318777;28;20143;-69
2023/03/19 12:32:49;;;;;;;5.22;2.33;;;;;;;12.40;13.32;98637.16;6319652;28;20048;-68
2023/03/19 12:35:57;;;;;;;1.98;1.50;;;;;;;11.48;13.60;98633.06;6318706;28;20044;-68
2023/03/19 12:39:08;;;;;;;2.13;1.20;;;;;;;10.85;14.03;98627.63;6318413;28;20052;-68
2023/03/19 12:42:17;;;;;;;1.55;1.15;;;;;;;10.43;14.89;98614.28;6318744;28;20040;-68
2023/03/19 12:45:24;;;;;;;4.00;1.40;;;;;;;9.89;15.14;98619.63;6318803;28;20512;-68
2023/03/19 12:48:34;;;;;;;2.85;1.13;;;;;;;9.19;15.56;98620.16;6318701;28;20052;-68
2023/03/19 12:51:50;;;;;;;1.57;0.90;;;;;;;8.72;16.11;98621.63;6318991;28;20040;-68
2023/03/19 12:55:06;;;;;;;2.30;1.70;;;;;;;8.23;16.53;98622.97;6318934;28;20149;-68
2023/03/19 12:58:41;;;;;;;5.20;1.40;;;;;;;7.60;17.31;98628.09;6318631;28;20048;-67
2023/03/19 13:01:48;;;;;;;2.85;1.38;;;;;;;6.92;17.85;98622.75;6313056;28;20501;-67
2023/03/19 13:05:06;;;;;;;2.22;1.27;;;;;;;6.56;18.23;98621.75;6316613;28;20052;-68
2023/03/19 13:08:18;;;;;;;2.45;1.42;;;;;;;6.22;18.80;98625.91;6318573;28;20036;-68
2023/03/19 13:11:32;;;;;;;;;;;;;;;6.18;18.11;98623.41;6319091;28;20047;-68
2023/03/19 13:14:42;;;;;;;;;;;;;;;5.81;17.94;98624.91;6317911;28;19927;-70
2023/03/19 13:18:05;;;;;;;4.15;1.40;;;;;;;5.22;18.87;98616.31;6317031;28;20389;-67
2023/03/19 13:21:24;;;;;;;5.32;1.45;;;;;;;4.71;19.53;98606.63;6318531;28;20506;-67
2023/03/19 13:24:29;;;;;;;7.03;1.30;;;;;;;4.07;20.13;98619.56;6316894;28;20488;-68
2023/03/19 13:27:35;;;;;;;12.48;4.68;;;;;;;3.35;20.78;98613.31;6317082;28;20036;-68
2023/03/19 13:30:41;;;;;;;;;;;;;;;2.80;20.63;98605.88;6318224;28;20048;-67
2023/03/19 13:34:12;;;;;;;8.43;4.95;;;;;;;2.03;22.21;98614.88;6318324;28;19995;-68
2023/03/19 13:37:19;;;;;;;7.82;3.17;;;;;;;1.37;23.38;98608.97;6305468;28;20050;-69
2023/03/19 13:40:44;;;;;;;3.28;2.05;;;;;;;0.93;23.77;98616.69;6322662;28;20044;-68
2023/03/19 13:43:53;;;;;;;1.88;1.58;;;;;;;0.49;24.20;98620.06;6322648;28;20041;-68
2023/03/19 13:46:56;;;;;;;6.30;1.83;;;;;;;0.02;24.53;98612.97;6321968;28;20453;-67
2023/03/19 13:50:19;;;;;;;5.22;1.90;;;;;;;-0.31;25.76;98619.66;6322301;28;20221;-68
2023/03/19 13:53:39;;;;;;;3.88;1.77;;;;;;;-0.75;25.98;98617.63;6322101;28;20047;-68
2023/03/19 13:57:16;;;;;;;2.67;1.30;;;;;;;-1.07;25.51;98615.66;6322285;28;20143;-67
2023/03/19 14:00:42;;;;;;;2.63;1.57;;;;;;;-1.42;26.50;98617.84;6322313;28;20040;-67
2023/03/19 14:04:05;;;;;;;3.20;1.90;;;;;;;-1.81;27.24;98619.16;6322120;28;20051;-67
2023/03/19 14:07:23;;;;;;;2.88;2.15;;;;;;;-2.10;27.98;98616.19;6320731;28;20048;-68
2023/03/19 14:10:30;;;;;;;2.88;1.65;;;;;;;-2.38;28.81;98610.63;6321996;28;20039;-67
2023/03/19 14:13:41;;;;;;;5.80;2.10;;;;;;;-2.55;28.44;98612.09;6322037;28;20044;-68
2023/03/19 14:16:45;;;;;;;7.72;2.10;;;;;;;-2.77;28.78;98611.81;6321805;28;20040;-68
2023/03/19 14:19:49;;;;;;;9.48;2.40;;;;;;;-2.93;29.21;98609.81;6320872;28;20044;-68
2023/03/19 14:23:15;;;;;;;3.95;2.35;;;;;;;-3.06;29.71;98613.00;6321415;28;20044;-68
2023/03/19 14:26:28;;;;;;;5.40;2.58;;;;;;;-3.32;30.32;98605.69;6320466;28;20055;-68
2023/03/19 14:29:33;;;;;;;6.38;3.25;;;;;;;-3.40;30.48;98612.41;6321102;28;20105;-68
2023/03/19 14:32:40;;;;;;;4.40;2.30;;;;;;;-3.58;30.60;98617.22;6321685;28;20036;-68
2023/03/19 14:35:45;;;;;;;11.20;3.30;;;;;;;-3.68;30.84;98617.06;6320981;28;20050;-68
2023/03/19 14:39:30;;;;;;;6.45;3.00;;;;;;;-3.83;30.81;98611.59;6321273;28;20040;-67
2023/03/19 14:42:39;;;;;;;7.45;3.15;;;;;;;-4.06;32.22;98617.13;6202714;28;20112;-68
2023/03/19 14:46:00;;;;;;;11.80;3.40;;;;;;;-4.18;32.37;98614.31;6220789;28;20448;-68
2023/03/19 14:49:29;;;;;;;7.88;4.07;;;;;;;-4.27;33.28;98614.13;6320455;28;20035;-68